createdAt,value
2023-02-12T00:00:20.671Z,96695.88
2023-02-12T00:03:07.219Z,96684.41
2023-02-12T00:05:53.208Z,96681.13
2023-02-12T00:08:40.216Z,96674.31
2023-02-12T00:11:28.571Z,96673.09
2023-02-12T00:14:14.224Z,96679.41
2023-02-12T00:16:59.995Z,96682.22
2023-02-12T00:19:47.878Z,96680.59
2023-02-12T00:22:34.052Z,96680.59
2023-02-12T00:25:19.911Z,96679.97
2023-02-12T00:28:06.045Z,96686.78
2023-02-12T00:30:51.780Z,96680.44
2023-02-12T00:33:38.508Z,96674.50
2023-02-12T00:36:27.807Z,96668.84
2023-02-12T00:39:13.671Z,96672.34
2023-02-12T00:41:59.275Z,96671.66
2023-02-12T00:44:46.024Z,96675.34
2023-02-12T00:47:31.602Z,96680.25
2023-02-12T00:50:17.680Z,96675.34
2023-02-12T00:53:03.769Z,96679.44
2023-02-12T00:55:54.550Z,96677.16
2023-02-12T00:58:40.901Z,96665.28
2023-02-12T01:01:26.769Z,96666.69
2023-02-12T01:04:13.110Z,96661.34
2023-02-12T01:07:00.122Z,96639.75
2023-02-12T01:09:45.940Z,96639.31
2023-02-12T01:12:32.091Z,96652.81
2023-02-12T01:15:18.848Z,96652.81
2023-02-12T01:18:04.911Z,96648.28
2023-02-12T01:20:51.169Z,96636.56
2023-02-12T01:23:36.841Z,96633.47
2023-02-12T01:26:22.791Z,96631.38
2023-02-12T01:29:09.125Z,96626.50
2023-02-12T01:31:55.248Z,96639.34
2023-02-12T01:34:41.179Z,96635.09
2023-02-12T01:37:27.021Z,96631.38
2023-02-12T01:40:16.548Z,96620.00
2023-02-12T01:43:04.802Z,96630.94
2023-02-12T01:45:54.093Z,96620.31
2023-02-12T01:48:45.760Z,96615.38
2023-02-12T01:51:32.568Z,96614.13
2023-02-12T01:54:20.900Z,96609.97
2023-02-12T01:57:08.687Z,96608.94
2023-02-12T01:59:56.758Z,96605.91
2023-02-12T02:02:44.291Z,96610.44
2023-02-12T02:05:44.627Z,96612.31
2023-02-12T02:08:30.963Z,96611.72
2023-02-12T02:11:35.490Z,96612.19
2023-02-12T02:14:34.535Z,96599.00
2023-02-12T02:17:42.139Z,96602.25
2023-02-12T02:20:39.970Z,96611.09
2023-02-12T02:23:59.940Z,96598.06
2023-02-12T02:26:57.809Z,96593.38
2023-02-12T02:30:11.446Z,96602.63
2023-02-12T02:33:03.384Z,96596.06
2023-02-12T02:36:28.591Z,96583.78
2023-02-12T02:39:20.583Z,96587.03
2023-02-12T02:42:28.143Z,96589.88
2023-02-12T02:45:26.234Z,96588.19
2023-02-12T02:48:22.723Z,96583.66
2023-02-12T02:51:15.690Z,96573.84
2023-02-12T02:54:11.375Z,96576.50
2023-02-12T02:57:05.454Z,96565.25
2023-02-12T03:00:04.283Z,96583.25
2023-02-12T03:02:54.313Z,96580.38
2023-02-12T03:05:42.761Z,96578.75
2023-02-12T03:08:34.404Z,96555.72
2023-02-12T03:11:20.268Z,96569.34
2023-02-12T03:14:17.603Z,96570.59
2023-02-12T03:17:15.452Z,96567.94
2023-02-12T03:20:18.969Z,96567.94
2023-02-12T03:23:10.484Z,96565.44
2023-02-12T03:26:12.911Z,96571.19
2023-02-12T03:28:59.230Z,96564.91
2023-02-12T03:31:56.583Z,96570.59
2023-02-12T03:35:11.832Z,96564.44
2023-02-12T03:38:05.719Z,96561.22
2023-02-12T03:41:00.163Z,96552.22
2023-02-12T03:43:53.426Z,96551.81
2023-02-12T03:46:47.536Z,96558.31
2023-02-12T03:49:43.075Z,96551.41
2023-02-12T03:52:28.882Z,96533.84
2023-02-12T03:55:16.503Z,96546.09
2023-02-12T03:58:08.199Z,96541.63
2023-02-12T04:00:54.452Z,96541.63
2023-02-12T04:03:41.807Z,96545.72
2023-02-12T04:06:31.540Z,96547.59
2023-02-12T04:09:17.626Z,96543.53
2023-02-12T04:12:27.274Z,96556.84
2023-02-12T04:15:34.644Z,96549.88
2023-02-12T04:18:34.268Z,96536.88
2023-02-12T04:21:41.427Z,96541.31
2023-02-12T04:25:00.025Z,96539.69
2023-02-12T04:27:52.217Z,96545.88
2023-02-12T04:30:48.759Z,96540.22
2023-02-12T04:33:47.826Z,96547.19
2023-02-12T04:36:40.334Z,96548.22
2023-02-12T04:39:29.154Z,96547.59
2023-02-12T04:42:15.317Z,96547.59
2023-02-12T04:45:01.352Z,96554.56
2023-02-12T04:47:47.593Z,96552.94
2023-02-12T04:50:42.560Z,96552.94
2023-02-12T04:53:28.302Z,96550.69
2023-02-12T04:56:15.201Z,96549.66
2023-02-12T04:59:01.135Z,96557.03
2023-02-12T05:01:47.286Z,96560.91
2023-02-12T05:04:33.246Z,96565.19
2023-02-12T05:07:19.155Z,96570.06
2023-02-12T05:10:06.231Z,96583.34
2023-02-12T05:12:53.342Z,96580.69
2023-02-12T05:15:39.983Z,96582.53
2023-02-12T05:18:26.243Z,96583.78
2023-02-12T05:21:11.836Z,96583.63
2023-02-12T05:23:57.923Z,96585.25
2023-02-12T05:26:43.580Z,96582.81
2023-02-12T05:29:29.233Z,96580.53
2023-02-12T05:32:15.077Z,96567.28
2023-02-12T05:35:01.064Z,96587.50
2023-02-12T05:37:47.058Z,96586.16
2023-02-12T05:40:32.961Z,96597.00
2023-02-12T05:43:18.522Z,96598.47
2023-02-12T05:46:06.570Z,96604.81
2023-02-12T05:48:52.583Z,96607.66
2023-02-12T05:51:38.551Z,96607.88
2023-02-12T05:54:24.182Z,96614.81
2023-02-12T05:57:10.983Z,96617.47
2023-02-12T05:59:56.886Z,96622.38
2023-02-12T06:02:43.137Z,96634.41
2023-02-12T06:05:28.935Z,96633.78
2023-02-12T06:08:14.957Z,96647.06
2023-02-12T06:11:05.109Z,96633.16
2023-02-12T06:13:50.820Z,96657.28
2023-02-12T06:16:36.534Z,96656.25
2023-02-12T06:19:22.410Z,96659.31
2023-02-12T06:22:08.010Z,96665.84
2023-02-12T06:24:53.851Z,96672.81
2023-02-12T06:27:39.725Z,96664.84
2023-02-12T06:30:25.802Z,96678.50
2023-02-12T06:33:11.627Z,96687.47
2023-02-12T06:35:58.421Z,96680.88
2023-02-12T06:38:44.639Z,96684.97
2023-02-12T06:41:30.908Z,96690.28
2023-02-12T06:44:16.708Z,96687.00
2023-02-12T06:47:02.699Z,96689.00
2023-02-12T06:49:51.231Z,96678.75
2023-02-12T06:52:37.113Z,96682.84
2023-02-12T06:55:22.931Z,96677.53
2023-02-12T06:58:09.159Z,96683.00
2023-02-12T07:00:55.240Z,96677.88
2023-02-12T07:03:41.890Z,96672.94
2023-02-12T07:06:28.957Z,96660.59
2023-02-12T07:09:14.607Z,96665.50
2023-02-12T07:12:00.670Z,96671.34
2023-02-12T07:14:46.629Z,96673.94
2023-02-12T07:17:32.288Z,96668.59
2023-02-12T07:20:18.112Z,96661.13
2023-02-12T07:23:04.170Z,96662.34
2023-02-12T07:26:01.547Z,96673.72
2023-02-12T07:28:47.599Z,96671.81
2023-02-12T07:31:34.188Z,96677.31
2023-02-12T07:34:19.947Z,96687.88
2023-02-12T07:37:07.009Z,96685.78
2023-02-12T07:39:52.897Z,96691.41
2023-02-12T07:42:38.731Z,96688.00
2023-02-12T07:45:25.960Z,96679.28
2023-02-12T07:48:12.776Z,96686.06
2023-02-12T07:51:03.486Z,96686.34
2023-02-12T07:53:49.970Z,96679.22
2023-02-12T07:56:37.705Z,96671.50
2023-02-12T07:59:23.669Z,96683.03
2023-02-12T08:02:09.797Z,96659.06
2023-02-12T08:04:59.167Z,96657.69
2023-02-12T08:07:45.165Z,96659.84
2023-02-12T08:10:32.472Z,96648.38
2023-02-12T08:13:18.657Z,96648.03
2023-02-12T08:16:07.297Z,96641.31
2023-02-12T08:18:53.349Z,96639.22
2023-02-12T08:21:39.240Z,96643.03
2023-02-12T08:24:25.717Z,96644.56
2023-02-12T08:27:11.680Z,96637.69
2023-02-12T08:29:57.417Z,96642.72
2023-02-12T08:32:43.115Z,96641.53
2023-02-12T08:35:28.804Z,96643.97
2023-02-12T08:38:14.607Z,96659.19
2023-02-12T08:41:08.726Z,96652.91
2023-02-12T08:43:57.234Z,96656.38
2023-02-12T08:46:48.493Z,96659.25
2023-02-12T08:49:34.718Z,96665.41
2023-02-12T08:52:20.659Z,96666.66
2023-02-12T08:55:06.960Z,96673.81
2023-02-12T08:57:57.884Z,96663.25
2023-02-12T09:00:43.927Z,96671.34
2023-02-12T09:03:29.544Z,96669.72
2023-02-12T09:06:19.193Z,96684.16
2023-02-12T09:09:05.095Z,96688.00
2023-02-12T09:11:50.998Z,96674.56
2023-02-12T09:14:36.866Z,96679.56
2023-02-12T09:17:27.429Z,96671.53
2023-02-12T09:20:13.362Z,96677.47
2023-02-12T09:23:00.101Z,96664.56
2023-02-12T09:25:46.566Z,96692.09
2023-02-12T09:28:33.149Z,96686.75
2023-02-12T09:31:29.855Z,96686.53
2023-02-12T09:34:15.804Z,96705.34
2023-02-12T09:37:01.556Z,96701.16
2023-02-12T09:39:49.558Z,96698.94
2023-02-12T09:42:56.984Z,96704.28
2023-02-12T09:45:49.657Z,96700.56
2023-02-12T09:49:11.742Z,96709.09
2023-02-12T09:51:58.856Z,96713.63
2023-02-12T09:54:44.961Z,96717.47
2023-02-12T09:57:36.370Z,96722.94
2023-02-12T10:00:31.228Z,96731.53
2023-02-12T10:03:17.591Z,96727.31
2023-02-12T10:06:06.283Z,96722.56
2023-02-12T10:09:20.357Z,96729.53
2023-02-12T10:12:20.686Z,96725.56
2023-02-12T10:15:21.281Z,96724.63
2023-02-12T10:18:34.846Z,96731.47
2023-02-12T10:21:20.305Z,96725.16
2023-02-12T10:24:28.916Z,96722.09
2023-02-12T10:27:17.423Z,96749.06
2023-02-12T10:30:14.124Z,96742.78
2023-02-12T10:33:06.936Z,96738.41
2023-02-12T10:35:58.830Z,96740.28
2023-02-12T10:38:49.700Z,96731.69
2023-02-12T10:41:38.740Z,96732.34
2023-02-12T10:44:24.344Z,96741.59
2023-02-12T10:47:19.913Z,96746.69
2023-02-12T10:50:26.013Z,96728.16
2023-02-12T10:53:23.798Z,96723.44
2023-02-12T10:56:17.418Z,96737.41
2023-02-12T10:59:03.279Z,96734.41
2023-02-12T11:01:49.350Z,96744.78
2023-02-12T11:04:35.422Z,96744.13
2023-02-12T11:07:22.076Z,96744.50
2023-02-12T11:10:22.583Z,96737.38
2023-02-12T11:13:24.358Z,96741.13
2023-02-12T11:16:10.611Z,96759.81
2023-02-12T11:19:05.597Z,96757.34
2023-02-12T11:21:51.813Z,96750.69
2023-02-12T11:24:38.407Z,96755.38
2023-02-12T11:27:26.562Z,96759.03
2023-02-12T11:30:13.261Z,96756.81
2023-02-12T11:33:31.794Z,96761.50
2023-02-12T11:36:25.660Z,96750.97
2023-02-12T11:39:28.248Z,96747.44
2023-02-12T11:42:20.522Z,96738.09
2023-02-12T11:45:06.332Z,96758.00
2023-02-12T11:47:52.306Z,96742.31
2023-02-12T11:50:38.139Z,96746.41
2023-02-12T11:53:36.127Z,96756.06
2023-02-12T11:56:22.035Z,96749.25
2023-02-12T11:59:33.118Z,96758.66
2023-02-12T12:02:30.679Z,96760.53
2023-02-12T12:05:19.499Z,96775.22
2023-02-12T12:08:15.962Z,96770.88
2023-02-12T12:11:13.633Z,96761.47
2023-02-12T12:14:14.256Z,96760.28
2023-02-12T12:17:25.063Z,96765.66
2023-02-12T12:20:17.701Z,96765.16
2023-02-12T12:23:06.353Z,96761.25
2023-02-12T12:25:56.974Z,96770.16
2023-02-12T12:29:15.598Z,96770.63
2023-02-12T12:32:03.640Z,96786.03
2023-02-12T12:34:49.755Z,96768.19
2023-02-12T12:38:02.443Z,96778.59
2023-02-12T12:41:01.105Z,96785.81
2023-02-12T12:44:00.719Z,96777.19
2023-02-12T12:47:05.641Z,96793.25
2023-02-12T12:50:12.768Z,96786.84
2023-02-12T12:53:13.097Z,96808.28
2023-02-12T12:56:05.027Z,96793.84
2023-02-12T12:59:21.965Z,96802.34
2023-02-12T13:02:54.088Z,96791.28
2023-02-12T13:06:03.385Z,96773.16
2023-02-12T13:09:15.142Z,96775.84
2023-02-12T13:12:22.371Z,96780.63
2023-02-12T13:15:17.682Z,96781.69
2023-02-12T13:18:41.322Z,96777.47
2023-02-12T13:22:02.560Z,96789.34
2023-02-12T13:24:58.011Z,96785.09
2023-02-12T13:27:45.122Z,96787.25
2023-02-12T13:30:39.955Z,96785.59
2023-02-12T13:33:42.843Z,96791.19
2023-02-12T13:36:28.905Z,96788.97
2023-02-12T13:39:23.977Z,96798.88
2023-02-12T13:42:18.864Z,96804.47
2023-02-12T13:45:34.012Z,96802.28
2023-02-12T13:48:41.514Z,96812.19
2023-02-12T13:51:42.154Z,96813.22
2023-02-12T13:54:44.284Z,96823.47
2023-02-12T13:57:29.950Z,96819.81
2023-02-12T14:00:46.948Z,96820.50
2023-02-12T14:03:32.852Z,96815.84
2023-02-12T14:06:21.005Z,96823.53
2023-02-12T14:09:11.517Z,96819.56
2023-02-12T14:11:57.124Z,96825.72
2023-02-12T14:14:46.646Z,96819.78
2023-02-12T14:17:32.577Z,96819.31
2023-02-12T14:20:28.190Z,96832.13
2023-02-12T14:23:25.620Z,96836.31
2023-02-12T14:26:15.992Z,96829.34
2023-02-12T14:29:17.284Z,96839.34
2023-02-12T14:32:03.567Z,96841.44
2023-02-12T14:34:49.838Z,96841.81
2023-02-12T14:37:38.134Z,96849.16
2023-02-12T14:40:33.457Z,96849.28
2023-02-12T14:43:56.807Z,96846.50
2023-02-12T14:46:46.436Z,96847.81
2023-02-12T14:49:35.226Z,96848.84
2023-02-12T14:52:31.297Z,96848.13
2023-02-12T14:55:23.793Z,96852.44
2023-02-12T14:58:19.925Z,96858.59
2023-02-12T15:01:06.020Z,96867.47
2023-02-12T15:03:55.292Z,96865.72
2023-02-12T15:07:11.620Z,96874.34
2023-02-12T15:10:32.033Z,96869.69
2023-02-12T15:13:25.065Z,96874.22
2023-02-12T15:16:19.224Z,96873.28
2023-02-12T15:19:27.134Z,96874.13
2023-02-12T15:22:31.023Z,96883.63
2023-02-12T15:25:32.920Z,96878.28
2023-02-12T15:28:24.103Z,96889.44
2023-02-12T15:31:11.002Z,96889.44
2023-02-12T15:33:58.606Z,96893.66
2023-02-12T15:36:45.797Z,96892.03
2023-02-12T15:39:43.789Z,96902.72
2023-02-12T15:42:33.151Z,96915.06
2023-02-12T15:45:23.258Z,96922.00
2023-02-12T15:48:09.142Z,96923.63
2023-02-12T15:50:58.169Z,96928.97
2023-02-12T15:53:44.536Z,96931.09
2023-02-12T15:56:31.989Z,96925.16
2023-02-12T15:59:28.275Z,96935.97
2023-02-12T16:02:30.585Z,96935.97
2023-02-12T16:05:16.905Z,96936.56
2023-02-12T16:08:03.554Z,96944.13
2023-02-12T16:10:52.857Z,96943.09
2023-02-12T16:13:39.213Z,96954.81
2023-02-12T16:16:46.146Z,96964.72
2023-02-12T16:19:37.231Z,96973.41
2023-02-12T16:22:35.911Z,96981.31
2023-02-12T16:25:28.251Z,96974.78
2023-02-12T16:28:21.127Z,96983.88
2023-02-12T16:31:12.720Z,96985.94
2023-02-12T16:33:59.513Z,96988.63
2023-02-12T16:36:47.248Z,96998.28
2023-02-12T16:39:54.565Z,97007.81
2023-02-12T16:42:46.315Z,97002.09
2023-02-12T16:45:32.307Z,97001.72
2023-02-12T16:48:23.434Z,97011.28
2023-02-12T16:51:25.171Z,97016.25
2023-02-12T16:54:29.528Z,97017.50
2023-02-12T16:57:15.448Z,97016.34
2023-02-12T17:00:01.257Z,97022.59
2023-02-12T17:02:47.461Z,97029.56
2023-02-12T17:05:33.161Z,97030.50
2023-02-12T17:08:21.752Z,97028.38
2023-02-12T17:11:09.860Z,97032.56
2023-02-12T17:13:58.136Z,97039.06
2023-02-12T17:16:44.648Z,97043.84
2023-02-12T17:19:30.372Z,97049.19
2023-02-12T17:22:24.257Z,97046.97
2023-02-12T17:25:10.218Z,97055.22
2023-02-12T17:27:57.491Z,97049.03
2023-02-12T17:30:43.778Z,97051.94
2023-02-12T17:33:29.631Z,97051.13
2023-02-12T17:36:15.335Z,97056.94
2023-02-12T17:39:01.580Z,97049.19
2023-02-12T17:41:47.698Z,97058.72
2023-02-12T17:44:33.875Z,97066.13
2023-02-12T17:47:19.846Z,97066.56
2023-02-12T17:50:10.906Z,97067.81
2023-02-12T17:52:56.827Z,97072.81
2023-02-12T17:55:42.833Z,97078.16
2023-02-12T17:58:28.664Z,97087.66
2023-02-12T18:01:16.827Z,97075.75
2023-02-12T18:04:02.966Z,97079.47
2023-02-12T18:06:48.839Z,97084.59
2023-02-12T18:09:36.685Z,97072.78
2023-02-12T18:12:22.453Z,97085.28
2023-02-12T18:15:09.463Z,97086.75
2023-02-12T18:17:55.347Z,97081.63
2023-02-12T18:20:41.150Z,97079.63
2023-02-12T18:23:27.025Z,97080.06
2023-02-12T18:26:15.509Z,97081.53
2023-02-12T18:29:01.579Z,97094.44
2023-02-12T18:31:47.663Z,97101.44
2023-02-12T18:34:35.176Z,97097.72
2023-02-12T18:37:21.317Z,97101.44
2023-02-12T18:40:08.583Z,97094.44
2023-02-12T18:42:54.499Z,97098.97
2023-02-12T18:45:40.555Z,97087.47
2023-02-12T18:48:26.561Z,97101.66
2023-02-12T18:51:15.671Z,97094.66
2023-02-12T18:54:04.859Z,97087.91
2023-02-12T18:56:53.431Z,97091.19
2023-02-12T18:59:39.143Z,97091.63
2023-02-12T19:02:25.057Z,97097.41
2023-02-12T19:05:11.714Z,97106.84
2023-02-12T19:07:57.542Z,97114.63
2023-02-12T19:10:43.826Z,97116.25
2023-02-12T19:13:29.772Z,97123.22
2023-02-12T19:16:18.364Z,97123.22
2023-02-12T19:19:04.772Z,97126.50
2023-02-12T19:21:51.113Z,97133.25
2023-02-12T19:24:46.169Z,97143.47
2023-02-12T19:27:32.759Z,97142.44
2023-02-12T19:30:19.423Z,97152.09
2023-02-12T19:33:06.386Z,97150.84
2023-02-12T19:35:52.182Z,97150.25
2023-02-12T19:38:38.698Z,97150.25
2023-02-12T19:41:27.029Z,97154.34
2023-02-12T19:44:19.874Z,97154.56
2023-02-12T19:47:05.868Z,97162.56
2023-02-12T19:49:52.844Z,97160.94
2023-02-12T19:52:39.087Z,97157.66
2023-02-12T19:55:25.441Z,97163.81
2023-02-12T19:58:11.501Z,97153.19
2023-02-12T20:00:58.077Z,97165.09
2023-02-12T20:03:44.879Z,97168.78
2023-02-12T20:06:35.197Z,97165.13
2023-02-12T20:09:22.476Z,97169.66
2023-02-12T20:12:08.783Z,97175.44
2023-02-12T20:14:56.009Z,97173.44
2023-02-12T20:17:42.102Z,97166.06
2023-02-12T20:20:28.624Z,97191.50
2023-02-12T20:23:14.417Z,97192.31
2023-02-12T20:26:00.617Z,97198.09
2023-02-12T20:28:48.197Z,97200.19
2023-02-12T20:31:36.674Z,97194.44
2023-02-12T20:34:24.271Z,97189.75
2023-02-12T20:37:13.060Z,97195.09
2023-02-12T20:40:00.237Z,97195.31
2023-02-12T20:42:47.238Z,97210.50
2023-02-12T20:45:35.291Z,97211.78
2023-02-12T20:48:27.246Z,97222.88
2023-02-12T20:51:19.976Z,97216.72
2023-02-12T20:54:06.196Z,97215.28
2023-02-12T20:56:52.625Z,97222.91
2023-02-12T20:59:38.842Z,97224.59
2023-02-12T21:02:27.291Z,97230.75
2023-02-12T21:05:14.060Z,97228.06
2023-02-12T21:08:00.008Z,97227.72
2023-02-12T21:10:46.411Z,97236.94
2023-02-12T21:13:32.522Z,97234.47
2023-02-12T21:16:24.606Z,97234.47
2023-02-12T21:19:11.333Z,97230.38
2023-02-12T21:21:58.034Z,97235.72
2023-02-12T21:24:44.655Z,97233.66
2023-02-12T21:27:31.407Z,97239.63
2023-02-12T21:30:18.014Z,97236.13
2023-02-12T21:33:05.337Z,97233.66
2023-02-12T21:35:51.499Z,97240.66
2023-02-12T21:38:42.836Z,97230.03
2023-02-12T21:41:31.255Z,97239.06
2023-02-12T21:44:18.882Z,97247.47
2023-02-12T21:47:05.438Z,97243.16
2023-02-12T21:49:53.001Z,97251.63
2023-02-12T21:52:39.045Z,97242.41
2023-02-12T21:55:27.797Z,97237.47
2023-02-12T21:58:14.445Z,97248.97
2023-02-12T22:01:19.254Z,97250.19
2023-02-12T22:04:09.738Z,97255.53
2023-02-12T22:06:58.276Z,97248.59
2023-02-12T22:09:44.280Z,97244.88
2023-02-12T22:12:32.669Z,97252.28
2023-02-12T22:15:19.255Z,97261.94
2023-02-12T22:18:08.497Z,97256.19
2023-02-12T22:21:01.394Z,97258.03
2023-02-12T22:23:47.513Z,97259.06
2023-02-12T22:26:33.828Z,97256.38
2023-02-12T22:29:20.436Z,97255.38
2023-02-12T22:32:07.773Z,97249.00
2023-02-12T22:34:54.429Z,97263.78
2023-02-12T22:37:41.320Z,97257.63
2023-02-12T22:40:27.117Z,97248.19
2023-02-12T22:43:12.940Z,97260.50
2023-02-12T22:45:59.160Z,97265.00
2023-02-12T22:48:45.314Z,97259.31
2023-02-12T22:51:32.213Z,97258.06
2023-02-12T22:54:19.477Z,97260.13
2023-02-12T22:57:05.223Z,97268.13
2023-02-12T22:59:51.064Z,97258.09
2023-02-12T23:02:36.728Z,97272.44
2023-02-12T23:05:22.626Z,97277.75
2023-02-12T23:08:08.354Z,97271.81
2023-02-12T23:10:54.064Z,97281.03
2023-02-12T23:13:39.836Z,97272.00
2023-02-12T23:16:26.052Z,97269.34
2023-02-12T23:19:12.201Z,97272.00
2023-02-12T23:21:59.242Z,97278.78
2023-02-12T23:24:46.130Z,97271.19
2023-02-12T23:27:32.155Z,97271.59
2023-02-12T23:30:18.181Z,97276.50
2023-02-12T23:33:03.937Z,97269.53
2023-02-12T23:35:49.959Z,97269.53
2023-02-12T23:38:35.897Z,97271.59
2023-02-12T23:41:21.508Z,97265.25
2023-02-12T23:44:07.294Z,97273.66
2023-02-12T23:46:53.973Z,97270.59
2023-02-12T23:49:40.870Z,97270.59
2023-02-12T23:52:26.714Z,97271.41
2023-02-12T23:55:12.445Z,97267.50
2023-02-12T23:57:58.490Z,97274.91
